Time;durP1;ratioP1;P1;durP2;ratioP2;P2;SDS_P1;SDS_P2;PMS_P1;PMS_P2;Temp;Humidity;BMP_temperature;BMP_pressure;BME280_temperature;BME280_humidity;BME280_pressure;Samples;Min_cycle;Max_cycle;Signal;HPM_P1;HPM_P2
2021/12/01 00:02:32;;;;;;;4.13;2.95;;;5.80;99.90;;;;;;5060559;28;20208;-74
2021/12/01 00:05:17;;;;;;;3.63;3.00;;;5.80;99.90;;;;;;5069712;28;20688;-75
2021/12/01 00:08:05;;;;;;;3.33;2.85;;;5.80;99.90;;;;;;5067064;28;20274;-74
2021/12/01 00:10:51;;;;;;;3.30;2.42;;;5.80;99.90;;;;;;5067702;28;20219;-74
2021/12/01 00:13:37;;;;;;;4.72;3.40;;;5.80;99.90;;;;;;5068507;28;20298;-74
2021/12/01 00:16:22;;;;;;;5.40;3.05;;;5.70;99.90;;;;;;5071968;28;20204;-74
2021/12/01 00:19:08;;;;;;;4.68;3.88;;;5.70;99.90;;;;;;5067477;28;20681;-74
2021/12/01 00:21:54;;;;;;;3.33;2.70;;;5.60;99.90;;;;;;5063256;28;20200;-74
2021/12/01 00:24:41;;;;;;;3.70;2.90;;;5.60;99.90;;;;;;5067917;28;20196;-75
2021/12/01 00:27:27;;;;;;;3.10;2.80;;;5.60;99.90;;;;;;5070817;28;20266;-75
2021/12/01 00:30:14;;;;;;;3.72;2.90;;;5.60;99.90;;;;;;5070512;28;20219;-75
2021/12/01 00:32:59;;;;;;;4.85;2.88;;;5.50;99.90;;;;;;5063203;28;20331;-75
2021/12/01 00:35:45;;;;;;;4.80;3.03;;;5.60;99.90;;;;;;5068718;28;20195;-75
2021/12/01 00:38:30;;;;;;;3.45;2.92;;;5.50;99.90;;;;;;5066718;28;21920;-75
2021/12/01 00:41:21;;;;;;;7.15;2.92;;;5.50;99.90;;;;;;5065503;28;20705;-75
2021/12/01 00:44:09;;;;;;;3.65;3.10;;;5.50;99.90;;;;;;5069200;28;20198;-75
2021/12/01 00:46:56;;;;;;;3.40;2.70;;;5.50;99.90;;;;;;5064301;28;20335;-75
2021/12/01 00:49:42;;;;;;;3.55;3.00;;;5.50;99.90;;;;;;5067914;28;20815;-75
2021/12/01 00:52:28;;;;;;;3.10;2.65;;;5.60;99.90;;;;;;5063176;28;20208;-75
2021/12/01 00:55:14;;;;;;;3.78;3.05;;;5.60;99.90;;;;;;5070014;28;20297;-75
2021/12/01 00:58:02;;;;;;;4.32;3.00;;;5.60;99.90;;;;;;5066614;28;20208;-75
2021/12/01 01:00:49;;;;;;;5.15;3.25;;;5.60;99.90;;;;;;5074675;28;20698;-75
2021/12/01 01:03:35;;;;;;;2.90;2.38;;;5.70;99.90;;;;;;5066345;28;20208;-75
2021/12/01 01:06:20;;;;;;;3.17;2.60;;;5.70;99.90;;;;;;5069306;28;20700;-75
2021/12/01 01:09:07;;;;;;;4.28;3.17;;;5.60;99.90;;;;;;5069536;28;20199;-75
2021/12/01 01:18:05;;;;;;;3.30;2.80;;;5.60;99.90;;;;;;5069788;28;20242;-75
2021/12/01 01:20:51;;;;;;;2.72;2.53;;;5.60;99.90;;;;;;5064676;28;20251;-75
2021/12/01 01:23:38;;;;;;;4.25;2.92;;;5.60;99.90;;;;;;5076633;28;20673;-75
2021/12/01 01:26:24;;;;;;;4.20;3.75;;;5.60;99.90;;;;;;5070596;28;20195;-75
2021/12/01 01:29:11;;;;;;;4.60;3.38;;;5.70;99.90;;;;;;5074033;28;20742;-74
2021/12/01 01:31:58;;;;;;;4.75;3.78;;;5.60;99.90;;;;;;5066623;28;20255;-74
2021/12/01 01:34:44;;;;;;;4.95;4.43;;;5.60;99.90;;;;;;5070149;28;20251;-75
2021/12/01 01:37:30;;;;;;;3.90;3.50;;;5.60;99.90;;;;;;5078090;28;20232;-75
2021/12/01 01:40:16;;;;;;;4.70;4.13;;;5.60;99.90;;;;;;5066362;28;20225;-75
2021/12/01 01:43:02;;;;;;;4.40;3.53;;;5.50;99.90;;;;;;5070372;28;20204;-75
2021/12/01 01:45:51;;;;;;;6.93;3.53;;;5.50;99.90;;;;;;5071847;28;20711;-75
2021/12/01 01:48:47;;;;;;;6.80;4.28;;;5.60;99.90;;;;;;5065333;28;20200;-74
2021/12/01 01:51:33;;;;;;;4.70;4.30;;;5.60;99.90;;;;;;5064445;28;20196;-75
2021/12/01 01:54:19;;;;;;;6.05;4.03;;;5.50;99.90;;;;;;5069162;28;20786;-75
2021/12/01 01:57:05;;;;;;;4.65;3.40;;;5.50;99.90;;;;;;5071881;28;20247;-75
2021/12/01 01:59:50;;;;;;;5.05;3.80;;;5.50;99.90;;;;;;5081979;28;20712;-75
2021/12/01 02:02:36;;;;;;;3.90;3.50;;;5.50;99.90;;;;;;5069329;28;20254;-75
2021/12/01 02:05:23;;;;;;;4.00;3.60;;;5.60;99.90;;;;;;5067058;28;20290;-75
2021/12/01 02:08:16;;;;;;;5.00;3.90;;;5.60;99.90;;;;;;5080183;28;20254;-75
2021/12/01 02:11:04;;;;;;;5.60;3.78;;;5.50;99.90;;;;;;5056786;28;20220;-75
2021/12/01 02:13:51;;;;;;;7.88;4.68;;;5.50;99.90;;;;;;5071656;28;20216;-75
2021/12/01 02:16:37;;;;;;;4.72;4.20;;;5.50;99.90;;;;;;5069321;28;20338;-75
2021/12/01 02:19:23;;;;;;;5.80;4.60;;;5.60;99.90;;;;;;5073691;28;20294;-75
2021/12/01 02:22:10;;;;;;;4.85;3.95;;;5.60;99.90;;;;;;5065259;28;20196;-76
2021/12/01 02:24:56;;;;;;;4.28;3.58;;;5.60;99.90;;;;;;5061814;28;20222;-75
2021/12/01 02:27:41;;;;;;;5.28;4.00;;;5.60;99.90;;;;;;5067788;28;20331;-75
2021/12/01 02:30:27;;;;;;;5.65;3.58;;;5.60;99.90;;;;;;5061443;28;20727;-75
2021/12/01 02:33:13;;;;;;;6.50;4.00;;;5.60;99.90;;;;;;5073148;28;20685;-75
2021/12/01 02:35:58;;;;;;;4.75;4.00;;;5.60;99.90;;;;;;5073443;28;20200;-75
2021/12/01 02:38:48;;;;;;;7.03;4.32;;;5.60;99.90;;;;;;5070583;28;20208;-75
2021/12/01 02:41:34;;;;;;;3.80;3.30;;;5.70;99.90;;;;;;5068078;28;20197;-75
2021/12/01 02:44:21;;;;;;;5.43;4.05;;;5.60;99.90;;;;;;5072028;28;20194;-75
2021/12/01 02:47:06;;;;;;;4.10;3.65;;;5.60;99.90;;;;;;5069742;28;20323;-75
2021/12/01 02:49:54;;;;;;;4.55;3.90;;;5.60;99.90;;;;;;5070227;28;20342;-76
2021/12/01 02:52:40;;;;;;;4.18;3.53;;;5.50;99.90;;;;;;5075245;28;20719;-76
2021/12/01 02:55:29;;;;;;;5.60;3.80;;;5.50;99.90;;;;;;5070957;28;20224;-76
2021/12/01 02:58:18;;;;;;;11.15;4.50;;;5.60;99.90;;;;;;5068627;28;20196;-75
2021/12/01 03:01:14;;;;;;;4.00;3.60;;;5.60;99.90;;;;;;5065420;28;20216;-76
2021/12/01 03:04:01;;;;;;;9.50;4.70;;;5.60;99.90;;;;;;5068983;28;20254;-76
2021/12/01 03:06:50;;;;;;;6.43;4.30;;;5.60;99.90;;;;;;5065121;28;20678;-75
2021/12/01 03:09:35;;;;;;;5.20;4.35;;;5.70;99.90;;;;;;5065348;28;20710;-75
2021/12/01 03:12:22;;;;;;;6.68;4.30;;;5.60;99.90;;;;;;5068289;28;20230;-75
2021/12/01 03:15:10;;;;;;;6.50;4.40;;;5.60;99.90;;;;;;5070809;28;20227;-77
2021/12/01 03:17:56;;;;;;;6.50;4.53;;;5.70;99.90;;;;;;5075629;28;20251;-75
2021/12/01 03:20:42;;;;;;;4.68;4.13;;;5.60;99.90;;;;;;5059083;28;20229;-75
2021/12/01 03:23:28;;;;;;;6.00;4.63;;;5.70;99.90;;;;;;5071048;28;20212;-75
2021/12/01 03:26:13;;;;;;;5.28;3.88;;;5.80;99.90;;;;;;5072224;28;20204;-76
2021/12/01 03:29:01;;;;;;;6.82;4.20;;;5.70;99.90;;;;;;5065438;28;20305;-76
2021/12/01 03:31:46;;;;;;;6.65;5.68;;;5.70;99.90;;;;;;5067814;28;20204;-75
2021/12/01 03:34:32;;;;;;;5.85;4.50;;;5.70;99.90;;;;;;5068779;28;20281;-76
2021/12/01 03:37:18;;;;;;;4.95;4.43;;;5.80;99.90;;;;;;5065518;28;20199;-77
2021/12/01 03:40:05;;;;;;;7.38;4.93;;;5.80;99.90;;;;;;5065502;28;20294;-75
2021/12/01 03:42:51;;;;;;;6.65;5.20;;;5.80;99.90;;;;;;5069796;28;20222;-75
2021/12/01 03:45:38;;;;;;;7.53;6.07;;;5.70;99.90;;;;;;5067805;28;20200;-76
2021/12/01 03:48:25;;;;;;;5.40;4.80;;;5.70;99.90;;;;;;5069106;28;20323;-75
2021/12/01 03:51:11;;;;;;;8.90;5.15;;;5.70;99.90;;;;;;5068392;28;20558;-75
2021/12/01 03:53:56;;;;;;;7.20;5.18;;;5.80;99.90;;;;;;5068593;28;20204;-75
2021/12/01 03:56:42;;;;;;;7.65;5.18;;;5.80;99.90;;;;;;5072784;28;20210;-75
2021/12/01 03:59:28;;;;;;;7.10;5.25;;;5.80;99.90;;;;;;5064455;28;20603;-75
2021/12/01 04:02:15;;;;;;;8.60;4.60;;;5.80;99.90;;;;;;5071916;28;20571;-75
2021/12/01 04:05:01;;;;;;;10.05;4.70;;;5.80;99.90;;;;;;5072150;28;20292;-75
2021/12/01 04:07:47;;;;;;;5.72;4.55;;;5.80;99.90;;;;;;5066438;28;20254;-75
2021/12/01 04:10:33;;;;;;;10.75;4.80;;;5.80;99.90;;;;;;5063702;28;20347;-76
2021/12/01 04:13:18;;;;;;;7.15;4.68;;;5.80;99.90;;;;;;5069107;28;20258;-75
2021/12/01 04:16:05;;;;;;;7.13;4.47;;;5.80;99.90;;;;;;5066557;28;20248;-76
2021/12/01 04:18:52;;;;;;;6.35;4.90;;;5.80;99.90;;;;;;5058783;28;20205;-74
2021/12/01 04:21:40;;;;;;;6.10;4.97;;;5.80;99.90;;;;;;5067177;28;20201;-75
2021/12/01 04:24:26;;;;;;;7.80;4.47;;;5.80;99.90;;;;;;5068917;28;20728;-75
2021/12/01 04:27:12;;;;;;;6.30;4.90;;;5.80;99.90;;;;;;5067220;28;20199;-74
2021/12/01 04:29:58;;;;;;;5.72;4.25;;;5.80;99.90;;;;;;5060147;28;20223;-75
2021/12/01 04:32:44;;;;;;;7.60;4.55;;;5.80;99.90;;;;;;5064683;28;20211;-76
2021/12/01 04:35:31;;;;;;;5.32;3.97;;;5.80;99.90;;;;;;5064987;28;20227;-75
2021/12/01 04:38:17;;;;;;;8.15;4.55;;;5.80;99.90;;;;;;5061912;28;20200;-75
2021/12/01 04:41:02;;;;;;;6.00;4.18;;;5.80;99.90;;;;;;5068551;28;20347;-76
2021/12/01 04:43:48;;;;;;;8.15;4.70;;;5.80;99.90;;;;;;5064737;28;20294;-75
2021/12/01 04:46:40;;;;;;;7.00;4.00;;;5.80;99.90;;;;;;5064936;28;20197;-75
2021/12/01 04:49:26;;;;;;;5.72;3.83;;;5.90;99.90;;;;;;5064212;28;20302;-76
2021/12/01 04:52:13;;;;;;;4.70;4.05;;;5.90;99.90;;;;;;5067473;28;20742;-75
2021/12/01 04:54:59;;;;;;;3.80;3.40;;;5.90;99.90;;;;;;5068858;28;20231;-75
2021/12/01 04:57:47;;;;;;;4.30;3.67;;;5.90;99.90;;;;;;5068713;28;20295;-74
2021/12/01 05:00:35;;;;;;;6.97;3.42;;;5.90;99.90;;;;;;5074253;28;20231;-75
2021/12/01 05:03:21;;;;;;;6.50;3.63;;;6.00;99.90;;;;;;5073062;28;20742;-75
2021/12/01 05:06:06;;;;;;;5.60;4.38;;;5.90;99.90;;;;;;5068697;28;20344;-75
2021/12/01 05:08:53;;;;;;;4.60;3.60;;;6.00;99.90;;;;;;5066913;28;20704;-76
2021/12/01 05:11:39;;;;;;;4.13;3.65;;;6.00;99.90;;;;;;5065664;28;20208;-75
2021/12/01 05:14:27;;;;;;;5.22;3.33;;;6.00;99.90;;;;;;5068752;28;20201;-75
2021/12/01 05:17:13;;;;;;;4.25;3.03;;;6.00;99.90;;;;;;5069832;28;20223;-75
2021/12/01 05:19:58;;;;;;;5.93;3.03;;;6.00;99.90;;;;;;5070524;28;20795;-76
2021/12/01 05:22:44;;;;;;;3.92;3.05;;;6.10;99.90;;;;;;5066176;28;20204;-75
2021/12/01 05:25:31;;;;;;;4.60;3.50;;;6.10;99.90;;;;;;5064229;28;20235;-76
2021/12/01 05:28:17;;;;;;;3.70;2.83;;;6.10;99.90;;;;;;5065082;28;20346;-76
2021/12/01 05:31:03;;;;;;;3.47;2.75;;;6.10;99.90;;;;;;5069383;28;20223;-76
2021/12/01 05:33:49;;;;;;;4.38;2.85;;;6.20;99.90;;;;;;5068466;28;20680;-75
2021/12/01 05:36:35;;;;;;;3.85;3.00;;;6.20;99.90;;;;;;5067933;28;20301;-76
2021/12/01 05:39:20;;;;;;;3.65;3.10;;;6.20;99.90;;;;;;5066764;28;20221;-75
2021/12/01 05:42:08;;;;;;;4.93;2.97;;;6.20;99.90;;;;;;5067758;28;20220;-74
2021/12/01 05:44:55;;;;;;;5.20;3.17;;;6.30;99.90;;;;;;5061420;28;20326;-75
2021/12/01 05:47:41;;;;;;;5.20;3.40;;;6.40;99.90;;;;;;5067968;28;20286;-75
2021/12/01 05:50:27;;;;;;;5.78;3.10;;;6.30;99.90;;;;;;5069834;28;20277;-75
2021/12/01 05:53:13;;;;;;;6.32;3.00;;;6.30;99.90;;;;;;5068781;28;20222;-75
2021/12/01 05:55:59;;;;;;;4.82;2.83;;;6.30;99.90;;;;;;5064216;28;20228;-74
2021/12/01 05:58:46;;;;;;;3.40;2.92;;;6.30;99.90;;;;;;5066827;28;20204;-75
2021/12/01 06:01:32;;;;;;;3.92;2.60;;;6.40;99.90;;;;;;5063712;28;20204;-75
2021/12/01 06:04:17;;;;;;;4.82;2.53;;;6.40;99.90;;;;;;5066688;28;20204;-76
2021/12/01 06:07:03;;;;;;;3.00;2.42;;;6.30;99.90;;;;;;5070593;28;20300;-75
2021/12/01 06:09:49;;;;;;;5.00;2.63;;;6.30;99.90;;;;;;5063581;28;20598;-75
2021/12/01 06:12:35;;;;;;;6.15;2.53;;;6.40;99.90;;;;;;5072696;28;20203;-74
2021/12/01 06:15:23;;;;;;;5.00;2.33;;;6.40;99.90;;;;;;5071744;28;20224;-75
2021/12/01 06:18:09;;;;;;;2.85;1.85;;;6.40;99.90;;;;;;5067352;28;20578;-75
2021/12/01 06:20:55;;;;;;;3.25;2.45;;;6.40;99.90;;;;;;5071394;28;20351;-75
2021/12/01 06:23:41;;;;;;;2.83;2.20;;;6.40;99.90;;;;;;5067314;28;20204;-75
2021/12/01 06:26:27;;;;;;;5.75;2.47;;;6.40;99.90;;;;;;5064770;28;20209;-75
2021/12/01 06:29:13;;;;;;;4.47;2.20;;;6.40;99.90;;;;;;5067483;28;20203;-75
2021/12/01 06:32:00;;;;;;;3.75;2.10;;;6.40;99.90;;;;;;5066224;28;20723;-75
2021/12/01 06:34:45;;;;;;;2.10;1.80;;;6.40;99.90;;;;;;5070189;28;20204;-75
2021/12/01 06:37:31;;;;;;;2.70;2.40;;;6.40;99.90;;;;;;5063309;28;20200;-75
2021/12/01 06:40:17;;;;;;;3.60;2.33;;;6.50;99.90;;;;;;5070554;28;20299;-76
2021/12/01 06:43:03;;;;;;;4.15;2.15;;;6.40;99.90;;;;;;5065731;28;20251;-76
2021/12/01 06:45:48;;;;;;;2.55;1.77;;;6.50;99.90;;;;;;5066226;28;20204;-75
2021/12/01 06:48:35;;;;;;;2.63;1.75;;;6.50;99.90;;;;;;5066580;28;20270;-75
2021/12/01 06:51:21;;;;;;;3.60;1.77;;;6.40;99.90;;;;;;5068734;28;20224;-75
2021/12/01 06:54:08;;;;;;;3.75;2.05;;;6.40;99.90;;;;;;5064916;28;20657;-76
2021/12/01 06:56:54;;;;;;;5.57;1.98;;;6.40;99.90;;;;;;5062356;28;20212;-77
2021/12/01 06:59:39;;;;;;;4.22;1.83;;;6.40;99.90;;;;;;5069874;28;20262;-76
2021/12/01 07:02:25;;;;;;;3.33;1.67;;;6.40;99.90;;;;;;5062173;28;20483;-75
2021/12/01 07:05:13;;;;;;;3.80;1.40;;;6.40;99.90;;;;;;5068445;28;20200;-75
2021/12/01 07:07:58;;;;;;;2.28;1.70;;;6.40;99.90;;;;;;5065333;28;20203;-75
2021/12/01 07:10:44;;;;;;;2.67;2.10;;;6.40;99.90;;;;;;5065440;28;20248;-75
2021/12/01 07:13:33;;;;;;;4.00;1.70;;;6.40;99.90;;;;;;5069828;28;20208;-75
2021/12/01 07:16:19;;;;;;;2.38;1.75;;;6.40;99.90;;;;;;5068084;28;20247;-75
2021/12/01 07:19:06;;;;;;;2.10;1.45;;;6.40;99.90;;;;;;5067596;28;20200;-75
2021/12/01 07:21:53;;;;;;;5.40;1.90;;;6.40;99.90;;;;;;5068019;28;20204;-76
2021/12/01 07:24:39;;;;;;;2.40;1.50;;;6.40;99.90;;;;;;5067640;28;20555;-75
2021/12/01 07:27:25;;;;;;;3.35;1.58;;;6.40;99.90;;;;;;5061087;28;20267;-77
2021/12/01 07:30:11;;;;;;;2.83;1.63;;;6.40;99.90;;;;;;5070500;28;20325;-75
2021/12/01 07:32:57;;;;;;;3.10;1.80;;;6.40;99.90;;;;;;5071420;28;20731;-75
2021/12/01 07:35:42;;;;;;;2.53;1.75;;;6.50;99.90;;;;;;5064120;28;20220;-75
2021/12/01 07:38:29;;;;;;;1.95;1.10;;;6.50;99.90;;;;;;5064121;28;20196;-74
2021/12/01 07:41:15;;;;;;;2.25;1.65;;;6.50;99.90;;;;;;5071856;28;20293;-75
2021/12/01 07:44:01;;;;;;;2.50;1.63;;;6.50;99.90;;;;;;5070766;28;20203;-75
2021/12/01 07:46:48;;;;;;;3.55;1.30;;;6.50;99.90;;;;;;5061494;28;20238;-76
2021/12/01 07:49:34;;;;;;;4.15;1.70;;;6.50;99.90;;;;;;5068748;28;20223;-75
2021/12/01 07:52:19;;;;;;;1.80;1.30;;;6.50;99.90;;;;;;5070585;28;20208;-76
2021/12/01 07:55:08;;;;;;;2.17;1.55;;;6.50;99.90;;;;;;5062548;28;20560;-75
2021/12/01 07:57:54;;;;;;;2.30;1.38;;;6.60;99.90;;;;;;5070411;28;20250;-75
2021/12/01 08:00:39;;;;;;;2.72;1.27;;;6.60;99.90;;;;;;5074708;28;20220;-75
2021/12/01 08:03:25;;;;;;;8.13;1.20;;;6.60;99.90;;;;;;5069300;28;20242;-77
2021/12/01 08:06:11;;;;;;;2.40;1.50;;;6.60;99.90;;;;;;5064537;28;20220;-75
2021/12/01 08:08:59;;;;;;;2.88;2.05;;;6.60;99.90;;;;;;5067488;28;20211;-75
2021/12/01 08:11:47;;;;;;;1.92;1.23;;;6.60;99.90;;;;;;5073079;28;20196;-75
2021/12/01 08:14:32;;;;;;;3.22;1.50;;;6.70;99.90;;;;;;5068209;28;20286;-76
2021/12/01 08:17:18;;;;;;;1.90;1.42;;;6.70;99.90;;;;;;5068530;28;20219;-76
2021/12/01 08:20:05;;;;;;;3.60;1.70;;;6.70;99.90;;;;;;5086953;22;20305;-72
2021/12/01 08:22:50;;;;;;;1.88;1.27;;;6.70;99.90;;;;;;5074154;28;20220;-73
2021/12/01 08:25:36;;;;;;;3.20;1.35;;;6.80;99.90;;;;;;5063637;28;20192;-73
2021/12/01 08:28:23;;;;;;;2.40;1.40;;;6.70;99.90;;;;;;5068493;28;20729;-73
2021/12/01 08:31:08;;;;;;;2.55;1.90;;;6.70;99.90;;;;;;5063127;28;20300;-73
2021/12/01 08:33:54;;;;;;;2.25;1.50;;;6.70;99.90;;;;;;5070950;28;20673;-73
2021/12/01 08:36:40;;;;;;;4.78;1.52;;;6.70;99.90;;;;;;5062500;28;20219;-73
2021/12/01 08:39:25;;;;;;;2.72;1.70;;;6.70;99.90;;;;;;5075645;28;20739;-71
2021/12/01 08:42:12;;;;;;;3.85;1.75;;;6.70;99.90;;;;;;5070964;28;20679;-72
2021/12/01 08:45:00;;;;;;;3.30;1.95;;;6.80;99.90;;;;;;5064650;28;20230;-72
2021/12/01 08:47:48;;;;;;;3.00;1.60;;;6.80;99.90;;;;;;5059825;28;20200;-72
2021/12/01 08:50:35;;;;;;;1.90;1.40;;;6.90;99.90;;;;;;5066957;28;20349;-72
2021/12/01 08:53:20;;;;;;;2.47;1.40;;;6.90;99.90;;;;;;5069049;28;20218;-72
2021/12/01 08:56:07;;;;;;;3.47;1.33;;;6.90;99.90;;;;;;5069886;28;20270;-72
2021/12/01 08:58:52;;;;;;;2.78;1.25;;;6.90;99.90;;;;;;5066601;28;20647;-72
2021/12/01 09:01:39;;;;;;;2.00;1.15;;;7.00;99.90;;;;;;5070389;28;20588;-72
2021/12/01 09:04:25;;;;;;;2.03;1.50;;;7.00;99.90;;;;;;5068447;28;20679;-72
2021/12/01 09:07:11;;;;;;;1.90;1.20;;;7.00;99.90;;;;;;5066340;28;20203;-71
2021/12/01 09:09:56;;;;;;;2.17;1.47;;;7.00;99.90;;;;;;5071562;28;20266;-71
2021/12/01 09:12:43;;;;;;;2.95;1.40;;;7.00;99.90;;;;;;5076844;28;21042;-72
2021/12/01 09:15:30;;;;;;;2.13;1.33;;;7.00;99.90;;;;;;5071988;28;20203;-72
2021/12/01 09:18:17;;;;;;;1.95;1.60;;;7.00;99.90;;;;;;5072387;28;20208;-72
2021/12/01 09:21:03;;;;;;;4.82;1.23;;;7.00;99.90;;;;;;5074439;28;20249;-72
2021/12/01 09:23:48;;;;;;;7.05;1.55;;;6.90;99.90;;;;;;5072997;28;20563;-72
2021/12/01 09:26:34;;;;;;;2.67;1.30;;;7.00;99.90;;;;;;5079445;28;20196;-72
2021/12/01 09:29:20;;;;;;;2.65;1.55;;;7.00;99.90;;;;;;5072967;28;20699;-72
2021/12/01 09:32:07;;;;;;;7.07;1.63;;;7.00;99.90;;;;;;5072962;28;20338;-72
2021/12/01 09:34:54;;;;;;;3.03;2.08;;;7.00;99.90;;;;;;5067555;28;20274;-72
2021/12/01 09:37:40;;;;;;;2.25;1.20;;;7.10;99.90;;;;;;5070925;28;20244;-72
2021/12/01 09:40:26;;;;;;;1.55;1.15;;;7.10;99.90;;;;;;5071466;28;20227;-72
2021/12/01 09:43:12;;;;;;;2.40;1.40;;;7.10;99.90;;;;;;5068431;28;20208;-72
2021/12/01 09:46:00;;;;;;;1.90;1.27;;;7.10;99.90;;;;;;5067176;28;20212;-72
2021/12/01 09:48:46;;;;;;;2.40;1.35;;;7.20;99.90;;;;;;5078786;28;20330;-71
2021/12/01 09:51:34;;;;;;;3.05;1.40;;;7.20;99.90;;;;;;5073337;28;20273;-72
2021/12/01 09:54:19;;;;;;;1.95;1.33;;;7.20;99.90;;;;;;5066699;28;20199;-72
2021/12/01 09:57:05;;;;;;;1.60;1.10;;;7.20;99.90;;;;;;5073589;28;20219;-72
2021/12/01 09:59:51;;;;;;;1.95;1.08;;;7.30;99.90;;;;;;5073645;28;20579;-72
2021/12/01 10:02:37;;;;;;;1.88;1.10;;;7.30;99.90;;;;;;5070103;28;20203;-72
2021/12/01 10:05:48;;;;;;;1.95;1.05;;;7.30;99.90;;;;;;5068744;28;20577;-72
2021/12/01 10:08:36;;;;;;;3.65;1.45;;;7.40;99.90;;;;;;5071018;28;20200;-72
2021/12/01 10:11:24;;;;;;;1.88;1.00;;;7.40;99.90;;;;;;5071219;28;20224;-72
2021/12/01 10:14:16;;;;;;;2.55;1.98;;;7.40;99.90;;;;;;5061521;28;20204;-71
2021/12/01 10:17:02;;;;;;;1.92;1.00;;;7.40;99.90;;;;;;5069312;28;20224;-71
2021/12/01 10:19:48;;;;;;;1.60;0.82;;;7.50;99.90;;;;;;5069320;28;20704;-71
2021/12/01 10:22:34;;;;;;;4.20;1.25;;;7.50;99.90;;;;;;5061423;28;20196;-72
2021/12/01 10:25:31;;;;;;;1.55;1.00;;;7.60;99.90;;;;;;5065327;28;20204;-72
2021/12/01 10:28:32;;;;;;;1.92;1.00;;;7.60;99.90;;;;;;5064599;28;20196;-72
2021/12/01 10:31:35;;;;;;;1.52;0.85;;;7.70;99.90;;;;;;5075648;28;20239;-72
2021/12/01 10:34:28;;;;;;;1.83;1.00;;;7.70;99.90;;;;;;5067740;28;20212;-72
2021/12/01 10:37:18;;;;;;;1.30;0.70;;;7.80;99.90;;;;;;5072348;28;20212;-73
2021/12/01 10:40:08;;;;;;;1.70;1.10;;;7.80;99.90;;;;;;5067834;28;20215;-72
2021/12/01 10:42:57;;;;;;;1.85;1.17;;;7.80;99.90;;;;;;5068911;28;20204;-72
2021/12/01 10:45:45;;;;;;;1.98;0.85;;;7.80;99.90;;;;;;5073241;28;20192;-72
2021/12/01 10:48:31;;;;;;;1.70;0.90;;;7.90;99.90;;;;;;5077783;28;20279;-72
2021/12/01 10:51:34;;;;;;;1.50;0.85;;;7.90;99.90;;;;;;5071866;28;20252;-72
2021/12/01 10:54:21;;;;;;;2.25;0.90;;;8.00;99.90;;;;;;5068772;28;20342;-72
2021/12/01 10:57:21;;;;;;;3.38;1.70;;;8.00;99.90;;;;;;5074719;28;20220;-72
2021/12/01 11:00:19;;;;;;;3.15;1.00;;;8.10;99.90;;;;;;5069009;28;20281;-72
2021/12/01 11:03:09;;;;;;;2.65;1.20;;;8.00;99.90;;;;;;5065330;28;20204;-72
2021/12/01 11:05:56;;;;;;;1.70;1.08;;;8.10;99.90;;;;;;5066701;28;20676;-72
2021/12/01 11:08:46;;;;;;;3.33;0.98;;;8.10;99.90;;;;;;5066677;28;20204;-72
2021/12/01 11:11:38;;;;;;;3.65;1.00;;;8.10;99.90;;;;;;5064282;28;20371;-72
2021/12/01 11:14:24;;;;;;;1.30;0.80;;;8.20;99.90;;;;;;5060099;28;20200;-72
2021/12/01 11:17:13;;;;;;;1.50;0.93;;;8.20;99.90;;;;;;5075815;28;20216;-72
2021/12/01 11:19:59;;;;;;;1.95;0.88;;;8.20;99.90;;;;;;5071693;28;20395;-72
2021/12/01 11:22:44;;;;;;;1.73;0.77;;;8.20;99.90;;;;;;5061954;28;20274;-72
2021/12/01 11:25:31;;;;;;;5.15;1.48;;;8.20;99.90;;;;;;5071141;28;20583;-72
2021/12/01 11:28:18;;;;;;;2.03;0.82;;;8.20;99.90;;;;;;5065945;28;20690;-72
2021/12/01 11:31:06;;;;;;;2.70;0.90;;;8.10;99.90;;;;;;5067083;28;20223;-72
2021/12/01 11:33:56;;;;;;;1.50;0.90;;;8.20;99.90;;;;;;5069178;28;20328;-72
2021/12/01 11:36:44;;;;;;;1.98;0.95;;;8.20;99.90;;;;;;5072680;28;20208;-72
2021/12/01 11:39:30;;;;;;;2.00;1.00;;;8.20;99.90;;;;;;5071100;28;20314;-72
2021/12/01 11:42:19;;;;;;;1.95;1.02;;;8.20;99.90;;;;;;5069892;28;20208;-72
2021/12/01 11:45:06;;;;;;;1.80;0.85;;;8.20;99.90;;;;;;5067391;28;20204;-72
2021/12/01 11:47:53;;;;;;;1.77;1.00;;;8.20;99.90;;;;;;5073764;28;20200;-72
2021/12/01 11:50:45;;;;;;;1.70;1.02;;;8.20;99.90;;;;;;5070914;28;20263;-72
2021/12/01 11:53:34;;;;;;;2.45;1.02;;;8.20;99.90;;;;;;5071259;28;20306;-72
2021/12/01 11:56:26;;;;;;;1.92;0.98;;;8.10;99.90;;;;;;5067680;28;20207;-72
2021/12/01 11:59:21;;;;;;;2.90;1.00;;;8.20;99.90;;;;;;5064167;28;20200;-72
2021/12/01 12:02:22;;;;;;;1.80;1.00;;;8.20;99.90;;;;;;5066624;28;20196;-72
2021/12/01 12:05:17;;;;;;;1.80;1.10;;;8.20;99.90;;;;;;5071347;28;20284;-72
2021/12/01 12:08:06;;;;;;;1.50;1.00;;;8.20;99.90;;;;;;5065719;28;20262;-72
2021/12/01 12:10:53;;;;;;;1.65;0.90;;;8.20;99.90;;;;;;5067028;28;20732;-72
2021/12/01 12:14:00;;;;;;;3.15;0.90;;;8.20;99.90;;;;;;5066043;28;20327;-72
2021/12/01 12:17:01;;;;;;;1.60;0.95;;;8.20;99.90;;;;;;5069414;28;20576;-71
2021/12/01 12:20:13;;;;;;;1.65;1.02;;;8.30;99.90;;;;;;5067687;28;20799;-71
2021/12/01 12:23:02;;;;;;;2.13;0.90;;;8.30;99.90;;;;;;5072202;28;20208;-71
2021/12/01 12:25:53;;;;;;;2.28;1.15;;;8.30;99.90;;;;;;5068280;28;20443;-71
2021/12/01 12:28:41;;;;;;;1.38;0.80;;;8.30;99.90;;;;;;5068030;28;20211;-70
2021/12/01 12:31:29;;;;;;;2.40;1.08;;;8.30;99.90;;;;;;5063147;28;20233;-70
2021/12/01 12:34:16;;;;;;;1.70;0.82;;;8.40;99.90;;;;;;5067736;28;20246;-70
2021/12/01 12:37:05;;;;;;;3.60;0.93;;;8.40;99.90;;;;;;5070450;28;20215;-70
2021/12/01 12:39:52;;;;;;;1.75;1.13;;;8.40;99.90;;;;;;5068423;28;20705;-70
2021/12/01 12:43:06;;;;;;;2.47;1.63;;;8.40;99.90;;;;;;5068709;28;20684;-70
2021/12/01 12:46:02;;;;;;;4.50;1.17;;;8.40;99.90;;;;;;5069401;28;20286;-70
2021/12/01 12:48:49;;;;;;;2.88;1.20;;;8.40;99.90;;;;;;5069865;28;20200;-71
2021/12/01 12:51:38;;;;;;;2.47;1.20;;;8.40;99.90;;;;;;5065372;28;20224;-72
2021/12/01 12:54:24;;;;;;;1.65;1.08;;;8.40;99.90;;;;;;5069503;28;20203;-71
2021/12/01 12:57:09;;;;;;;2.30;1.00;;;8.40;99.90;;;;;;5059723;28;20708;-71
2021/12/01 13:00:17;;;;;;;2.42;1.20;;;8.50;99.90;;;;;;5062714;28;20351;-71
2021/12/01 13:03:29;;;;;;;2.15;1.15;;;8.50;99.90;;;;;;5060660;28;20208;-71
2021/12/01 13:06:27;;;;;;;1.60;0.98;;;8.50;99.90;;;;;;5061974;28;20228;-71
2021/12/01 13:09:18;;;;;;;3.15;0.85;;;8.40;99.90;;;;;;5059515;28;20216;-72
2021/12/01 13:12:04;;;;;;;1.90;0.93;;;8.40;99.90;;;;;;5056773;28;20339;-71
2021/12/01 13:14:50;;;;;;;1.90;1.02;;;8.50;99.90;;;;;;5059786;28;20326;-72
2021/12/01 13:17:37;;;;;;;2.20;0.95;;;8.50;99.90;;;;;;5064819;28;20228;-72
2021/12/01 13:20:25;;;;;;;2.50;1.40;;;8.50;99.90;;;;;;5065787;28;20232;-72
2021/12/01 13:23:18;;;;;;;1.58;0.98;;;8.50;99.90;;;;;;5073892;28;20199;-72
2021/12/01 13:26:11;;;;;;;3.55;1.00;;;8.50;99.90;;;;;;5066219;28;20204;-71
2021/12/01 13:29:01;;;;;;;2.60;1.35;;;8.50;99.90;;;;;;5065407;28;20255;-71
2021/12/01 13:31:48;;;;;;;1.60;1.00;;;8.50;99.90;;;;;;5064189;28;20603;-72
2021/12/01 13:34:36;;;;;;;1.60;0.93;;;8.50;99.90;;;;;;5062323;28;20208;-71
2021/12/01 13:37:21;;;;;;;2.80;1.20;;;8.60;99.90;;;;;;5062850;28;20709;-71
2021/12/01 13:40:10;;;;;;;1.70;1.20;;;8.60;99.90;;;;;;5058028;28;20228;-72
2021/12/01 13:42:57;;;;;;;2.10;1.17;;;8.60;99.90;;;;;;5067189;28;20224;-70
2021/12/01 13:45:54;;;;;;;1.92;0.95;;;8.50;99.90;;;;;;5066022;28;20207;-71
2021/12/01 13:48:51;;;;;;;1.60;0.95;;;8.50;99.90;;;;;;5075031;28;20200;-72
2021/12/01 13:51:41;;;;;;;2.13;1.07;;;8.60;99.90;;;;;;5065463;28;20266;-72
2021/12/01 13:54:26;;;;;;;1.50;1.00;;;8.60;99.90;;;;;;5067063;28;20920;-72
2021/12/01 13:57:13;;;;;;;2.20;1.17;;;8.60;99.90;;;;;;5068346;28;20270;-71
2021/12/01 14:00:00;;;;;;;1.95;1.40;;;8.60;99.90;;;;;;5072856;28;20219;-72
2021/12/01 14:02:52;;;;;;;2.47;1.30;;;8.60;99.90;;;;;;5074317;28;20208;-72
2021/12/01 14:05:39;;;;;;;4.78;1.67;;;8.50;99.90;;;;;;5080010;28;20197;-72
2021/12/01 14:08:34;;;;;;;4.93;1.13;;;8.50;99.90;;;;;;5066649;28;20204;-72
2021/12/01 14:11:28;;;;;;;2.10;1.40;;;8.60;99.90;;;;;;5069920;28;20514;-72
2021/12/01 14:14:17;;;;;;;2.50;1.35;;;8.50;99.90;;;;;;5070148;28;20446;-72
2021/12/01 14:17:05;;;;;;;2.50;1.30;;;8.60;99.90;;;;;;5065756;28;20252;-72
2021/12/01 14:19:56;;;;;;;2.33;1.40;;;8.60;99.90;;;;;;5070697;28;20331;-73
2021/12/01 14:22:45;;;;;;;1.90;1.00;;;8.60;99.90;;;;;;5072478;28;20203;-73
2021/12/01 14:25:34;;;;;;;2.22;1.00;;;8.60;99.90;;;;;;5065717;28;20208;-73
2021/12/01 14:28:20;;;;;;;1.70;1.20;;;8.60;99.90;;;;;;5059426;28;20575;-71
2021/12/01 14:31:06;;;;;;;3.75;1.17;;;8.60;99.90;;;;;;5061464;28;20470;-72
2021/12/01 14:34:03;;;;;;;2.40;1.30;;;8.50;99.90;;;;;;5067264;28;20204;-72
2021/12/01 14:36:53;;;;;;;1.75;0.90;;;8.60;99.90;;;;;;5062693;28;20470;-73
2021/12/01 14:39:40;;;;;;;2.17;1.10;;;8.60;99.90;;;;;;5063625;28;20212;-72
2021/12/01 14:42:27;;;;;;;1.70;0.80;;;8.60;99.90;;;;;;5066780;28;20748;-73
2021/12/01 14:45:15;;;;;;;2.17;0.95;;;8.60;99.90;;;;;;5065946;28;20246;-73
2021/12/01 14:48:06;;;;;;;1.50;0.80;;;8.60;99.90;;;;;;5067133;28;20262;-73
2021/12/01 14:50:55;;;;;;;2.53;1.20;;;8.60;99.90;;;;;;5064499;28;20227;-73
2021/12/01 14:53:42;;;;;;;1.88;1.00;;;8.60;99.90;;;;;;5060065;28;20685;-72